createdAt,value
2022-09-27T00:01:47.305Z,11.17
2022-09-27T00:04:49.130Z,11.15
2022-09-27T00:07:50.783Z,11.18
2022-09-27T00:10:59.498Z,11.18
2022-09-27T00:14:01.747Z,11.18
2022-09-27T00:17:03.315Z,11.20
2022-09-27T00:20:07.177Z,11.19
2022-09-27T00:23:08.777Z,11.20
2022-09-27T00:26:13.329Z,11.18
2022-09-27T00:29:18.247Z,11.18
2022-09-27T00:32:19.870Z,11.17
2022-09-27T00:35:21.480Z,11.16
2022-09-27T00:38:23.112Z,11.15
2022-09-27T00:41:28.622Z,11.14
2022-09-27T00:44:33.506Z,11.11
2022-09-27T00:47:40.953Z,11.06
2022-09-27T00:50:48.107Z,11.05
2022-09-27T00:53:52.206Z,11.05
2022-09-27T00:56:56.113Z,11.00
2022-09-27T01:00:03.451Z,11.02
2022-09-27T01:03:09.713Z,10.99
2022-09-27T01:06:11.901Z,10.97
2022-09-27T01:09:13.717Z,10.96
2022-09-27T01:12:15.351Z,10.95
2022-09-27T01:15:25.423Z,10.94
2022-09-27T01:18:32.808Z,10.91
2022-09-27T01:22:06.579Z,10.86
2022-09-27T01:25:40.746Z,10.79
2022-09-27T01:29:07.203Z,10.76
2022-09-27T01:32:32.098Z,10.70
2022-09-27T01:36:04.851Z,10.68
2022-09-27T01:39:09.691Z,10.63
2022-09-27T01:42:48.180Z,10.61
2022-09-27T01:45:58.734Z,10.56
2022-09-27T01:49:26.884Z,10.55
2022-09-27T01:52:44.863Z,10.51
2022-09-27T01:55:49.824Z,10.49
2022-09-27T01:59:48.146Z,10.44
2022-09-27T02:03:14.818Z,10.38
2022-09-27T02:06:40.069Z,10.34
2022-09-27T02:09:56.891Z,10.28
2022-09-27T02:13:22.855Z,10.24
2022-09-27T02:16:30.216Z,10.22
2022-09-27T02:19:59.752Z,10.20
2022-09-27T02:23:32.542Z,10.14
2022-09-27T02:26:45.222Z,10.09
2022-09-27T02:29:53.405Z,10.08
2022-09-27T02:32:55.268Z,10.05
2022-09-27T02:35:57.314Z,10.02
2022-09-27T02:39:00.228Z,10.00
2022-09-27T02:42:05.580Z,10.01
2022-09-27T02:45:08.989Z,10.01
2022-09-27T02:48:10.728Z,9.98
2022-09-27T02:51:15.376Z,9.95
2022-09-27T02:54:27.613Z,9.91
2022-09-27T02:57:46.648Z,9.90
2022-09-27T03:01:51.722Z,9.90
2022-09-27T03:05:08.504Z,9.87
2022-09-27T03:08:12.491Z,9.86
2022-09-27T03:11:14.358Z,9.82
2022-09-27T03:14:17.457Z,9.84
2022-09-27T03:17:32.929Z,9.84
2022-09-27T03:20:54.797Z,9.83
2022-09-27T03:23:58.411Z,9.82
2022-09-27T03:27:02.324Z,9.83
2022-09-27T03:30:06.276Z,9.84
2022-09-27T03:33:09.429Z,9.85
2022-09-27T03:36:19.967Z,9.85
2022-09-27T03:39:21.677Z,9.85
2022-09-27T03:42:23.421Z,9.84
2022-09-27T03:45:26.808Z,9.87
2022-09-27T03:48:31.091Z,9.84
2022-09-27T03:51:32.718Z,9.84
2022-09-27T03:54:34.617Z,9.84
2022-09-27T03:57:36.283Z,9.82
2022-09-27T04:00:37.935Z,9.82
2022-09-27T04:03:39.556Z,9.83
2022-09-27T04:07:02.912Z,9.83
2022-09-27T04:10:06.086Z,9.82
2022-09-27T04:13:09.244Z,9.77
2022-09-27T04:16:21.475Z,9.77
2022-09-27T04:19:40.781Z,9.76
2022-09-27T04:22:45.805Z,9.77
2022-09-27T04:25:47.818Z,9.78
2022-09-27T04:28:57.954Z,9.76
2022-09-27T04:32:00.159Z,9.75
2022-09-27T04:35:50.123Z,9.74
2022-09-27T04:38:53.671Z,9.77
2022-09-27T04:41:57.112Z,9.78
2022-09-27T04:44:59.021Z,9.77
2022-09-27T04:48:00.791Z,9.78
2022-09-27T04:51:03.170Z,9.82
2022-09-27T04:54:04.957Z,9.79
2022-09-27T04:57:21.714Z,9.82
2022-09-27T05:00:23.667Z,9.80
2022-09-27T05:03:32.264Z,9.81
2022-09-27T05:06:41.090Z,9.82
2022-09-27T05:09:53.048Z,9.82
2022-09-27T05:12:54.674Z,9.77
2022-09-27T05:16:03.121Z,9.77
2022-09-27T05:19:27.973Z,9.78
2022-09-27T05:22:42.391Z,9.79
2022-09-27T05:25:45.350Z,9.84
2022-09-27T05:28:47.377Z,9.85
2022-09-27T05:31:50.968Z,9.84
2022-09-27T05:34:53.745Z,9.83
2022-09-27T05:37:58.408Z,9.82
2022-09-27T05:41:04.187Z,9.78
2022-09-27T05:44:06.092Z,9.74
2022-09-27T05:47:09.104Z,9.75
2022-09-27T05:50:11.140Z,9.71
2022-09-27T05:53:13.828Z,9.67
2022-09-27T05:56:17.265Z,9.66
2022-09-27T05:59:49.107Z,9.62
2022-09-27T06:02:59.033Z,9.62
2022-09-27T06:06:23.638Z,9.59
2022-09-27T06:09:29.618Z,9.58
2022-09-27T06:12:31.529Z,9.57
2022-09-27T06:15:37.663Z,9.54
2022-09-27T06:18:39.559Z,9.54
2022-09-27T06:21:41.418Z,9.54
2022-09-27T06:24:43.053Z,9.54
2022-09-27T06:27:53.732Z,9.56
2022-09-27T06:31:02.538Z,9.59
2022-09-27T06:34:16.565Z,9.60
2022-09-27T06:37:18.341Z,9.64
2022-09-27T06:40:20.776Z,9.67
2022-09-27T06:43:45.869Z,9.70
2022-09-27T06:47:07.509Z,9.75
2022-09-27T06:50:21.038Z,9.80
2022-09-27T06:53:23.376Z,9.87
2022-09-27T06:56:25.681Z,9.92
2022-09-27T06:59:46.722Z,9.95
2022-09-27T07:03:08.282Z,9.99
2022-09-27T07:06:47.816Z,10.02
2022-09-27T07:09:55.239Z,10.04
2022-09-27T07:13:11.307Z,10.09
2022-09-27T07:16:14.984Z,10.11
2022-09-27T07:19:18.338Z,10.03
2022-09-27T07:22:21.456Z,10.02
2022-09-27T07:25:29.184Z,9.98
2022-09-27T07:28:31.823Z,9.90
2022-09-27T07:31:34.056Z,9.82
2022-09-27T07:34:36.116Z,9.81
2022-09-27T07:37:38.627Z,9.82
2022-09-27T07:40:41.337Z,9.79
2022-09-27T07:43:46.405Z,9.72
2022-09-27T07:46:49.296Z,9.69
2022-09-27T07:49:57.949Z,9.66
2022-09-27T07:53:28.911Z,9.63
2022-09-27T07:56:53.101Z,9.62
2022-09-27T07:59:56.238Z,9.62
2022-09-27T08:02:58.387Z,9.61
2022-09-27T08:06:03.207Z,9.69
2022-09-27T08:09:07.268Z,9.74
2022-09-27T08:12:09.149Z,9.79
2022-09-27T08:15:11.433Z,9.84
2022-09-27T08:18:13.120Z,9.83
2022-09-27T08:21:30.958Z,9.78
2022-09-27T08:24:48.140Z,9.79
2022-09-27T08:28:04.635Z,9.83
2022-09-27T08:31:14.205Z,9.85
2022-09-27T08:34:15.991Z,9.87
2022-09-27T08:37:17.877Z,9.86
2022-09-27T08:40:24.201Z,9.85
2022-09-27T08:43:41.396Z,9.90
2022-09-27T08:47:06.177Z,9.95
2022-09-27T08:50:20.560Z,10.03
2022-09-27T08:53:28.352Z,10.12
2022-09-27T08:56:31.447Z,10.18
2022-09-27T08:59:42.073Z,10.24
2022-09-27T09:02:44.193Z,10.30
2022-09-27T09:05:56.599Z,10.34
2022-09-27T09:09:13.873Z,10.40
2022-09-27T09:12:46.873Z,10.49
2022-09-27T09:16:31.462Z,10.56
2022-09-27T09:19:42.259Z,10.59
2022-09-27T09:23:16.720Z,10.61
2022-09-27T09:26:52.790Z,10.67
2022-09-27T09:30:18.974Z,10.75
2022-09-27T09:33:58.172Z,10.82
2022-09-27T09:37:04.053Z,10.81
2022-09-27T09:40:13.798Z,10.82
2022-09-27T09:43:25.294Z,10.91
2022-09-27T09:46:46.506Z,11.01
2022-09-27T09:49:54.793Z,11.16
2022-09-27T09:53:04.354Z,11.22
2022-09-27T09:56:15.711Z,11.24
2022-09-27T09:59:25.393Z,11.23
2022-09-27T10:02:38.349Z,11.19
2022-09-27T10:05:46.887Z,11.19
2022-09-27T10:08:50.073Z,11.16
2022-09-27T10:12:14.544Z,11.17
2022-09-27T10:15:24.234Z,11.22
2022-09-27T10:18:28.334Z,11.24
2022-09-27T10:21:32.684Z,11.22
2022-09-27T10:24:55.333Z,11.23
2022-09-27T10:28:37.467Z,11.24
2022-09-27T10:31:42.087Z,11.19
2022-09-27T10:34:51.280Z,11.22
2022-09-27T10:37:54.162Z,11.22
2022-09-27T10:41:16.749Z,11.25
2022-09-27T10:44:24.224Z,11.35
2022-09-27T10:47:34.283Z,11.46
2022-09-27T10:51:06.110Z,11.46
2022-09-27T10:54:29.704Z,11.44
2022-09-27T10:57:32.121Z,11.34
2022-09-27T11:00:36.918Z,11.29
2022-09-27T11:03:57.991Z,11.24
2022-09-27T11:07:12.881Z,11.18
2022-09-27T11:10:37.422Z,11.07
2022-09-27T11:13:41.416Z,10.98
2022-09-27T11:17:01.101Z,10.94
2022-09-27T11:20:32.661Z,10.81
2022-09-27T11:23:49.796Z,10.57
2022-09-27T11:26:58.067Z,10.33
2022-09-27T11:30:05.863Z,10.22
2022-09-27T11:33:34.790Z,10.19
2022-09-27T11:37:15.201Z,10.17
2022-09-27T11:40:51.450Z,10.21
2022-09-27T11:44:17.953Z,10.22
2022-09-27T11:47:47.870Z,10.22
2022-09-27T11:51:05.405Z,10.18
2022-09-27T11:54:38.376Z,10.15
2022-09-27T11:57:52.424Z,10.14
2022-09-27T12:01:09.882Z,10.17
2022-09-27T12:04:15.161Z,10.24
2022-09-27T12:07:33.557Z,10.32
2022-09-27T12:10:39.612Z,10.47
2022-09-27T12:13:49.015Z,10.57
2022-09-27T12:16:53.697Z,10.65
2022-09-27T12:20:06.230Z,10.75
2022-09-27T12:23:26.266Z,10.90
2022-09-27T12:26:42.783Z,11.05
2022-09-27T12:29:47.358Z,11.13
2022-09-27T12:32:58.017Z,11.12
2022-09-27T12:36:06.981Z,11.17
2022-09-27T12:39:37.656Z,11.23
2022-09-27T12:43:23.903Z,11.27
2022-09-27T12:46:54.470Z,11.33
2022-09-27T12:50:23.640Z,11.40
2022-09-27T12:53:37.747Z,11.42
2022-09-27T12:57:04.353Z,11.48
2022-09-27T13:00:18.767Z,11.57
2022-09-27T13:03:29.763Z,11.66
2022-09-27T13:06:57.353Z,11.78
2022-09-27T13:10:14.828Z,11.86
2022-09-27T13:13:21.150Z,11.94
2022-09-27T13:16:25.399Z,12.00
2022-09-27T13:19:36.593Z,12.01
2022-09-27T13:22:40.834Z,12.03
2022-09-27T13:26:03.649Z,12.07
2022-09-27T13:29:28.334Z,12.13
2022-09-27T13:32:33.623Z,12.13
2022-09-27T13:36:16.597Z,12.19
2022-09-27T13:39:23.024Z,12.24
2022-09-27T13:43:05.815Z,12.19
2022-09-27T13:46:16.771Z,12.19
2022-09-27T13:49:26.767Z,12.19
2022-09-27T13:53:22.415Z,12.28
2022-09-27T13:56:36.741Z,12.27
2022-09-27T13:59:52.578Z,12.27
2022-09-27T14:03:32.208Z,12.25
2022-09-27T14:06:43.860Z,12.24
2022-09-27T14:09:51.757Z,12.20
2022-09-27T14:13:00.197Z,12.11
2022-09-27T14:16:04.806Z,12.03
2022-09-27T14:19:26.079Z,11.95
2022-09-27T14:22:28.315Z,11.86
2022-09-27T14:25:44.207Z,11.80
2022-09-27T14:28:47.005Z,11.76
2022-09-27T14:32:10.064Z,11.76
2022-09-27T14:35:42.633Z,11.75
2022-09-27T14:38:45.491Z,11.71
2022-09-27T14:42:00.065Z,11.64
2022-09-27T14:45:06.006Z,11.65
2022-09-27T14:48:29.329Z,11.59
2022-09-27T14:51:33.296Z,11.59
2022-09-27T14:54:34.926Z,11.49
2022-09-27T14:57:37.274Z,11.42
2022-09-27T15:00:41.387Z,11.35
2022-09-27T15:03:45.355Z,11.30
2022-09-27T15:06:48.226Z,11.21
2022-09-27T15:09:51.257Z,11.12
2022-09-27T15:12:57.907Z,10.98
2022-09-27T15:16:00.751Z,10.64
2022-09-27T15:19:13.577Z,10.42
2022-09-27T15:22:36.085Z,10.36
2022-09-27T15:25:43.683Z,10.30
2022-09-27T15:28:49.989Z,10.24
2022-09-27T15:32:00.862Z,10.15
2022-09-27T15:35:08.622Z,10.05
2022-09-27T15:38:34.419Z,9.99
2022-09-27T15:42:27.132Z,9.90
2022-09-27T15:45:34.812Z,9.85
2022-09-27T15:48:37.743Z,9.79
2022-09-27T15:51:41.586Z,9.77
2022-09-27T15:54:43.204Z,9.74
2022-09-27T15:57:47.700Z,9.69
2022-09-27T16:00:58.021Z,9.66
2022-09-27T16:04:00.111Z,9.67
2022-09-27T16:07:04.376Z,9.64
2022-09-27T16:10:20.605Z,9.64
2022-09-27T16:13:23.717Z,9.59
2022-09-27T16:16:25.694Z,9.56
2022-09-27T16:19:27.634Z,9.53
2022-09-27T16:22:29.351Z,9.51
2022-09-27T16:25:31.130Z,9.49
2022-09-27T16:28:33.921Z,9.45
2022-09-27T16:31:36.031Z,9.40
2022-09-27T16:34:37.931Z,9.35
2022-09-27T16:37:39.742Z,9.30
2022-09-27T16:40:41.476Z,9.25
2022-09-27T16:43:45.206Z,9.24
2022-09-27T16:46:46.809Z,9.18
2022-09-27T16:50:07.019Z,9.15
2022-09-27T16:53:08.754Z,9.14
2022-09-27T16:56:10.394Z,9.08
2022-09-27T16:59:12.141Z,9.09
2022-09-27T17:02:14.079Z,9.04
2022-09-27T17:05:16.256Z,9.00
2022-09-27T17:08:17.863Z,8.96
2022-09-27T17:11:20.426Z,8.95
2022-09-27T17:14:22.498Z,8.92
2022-09-27T17:17:24.296Z,8.89
2022-09-27T17:20:25.932Z,8.85
2022-09-27T17:23:27.863Z,8.83
2022-09-27T17:26:32.388Z,8.74
2022-09-27T17:29:34.229Z,8.70
2022-09-27T17:32:35.923Z,8.65
2022-09-27T17:35:38.282Z,8.63
2022-09-27T17:38:40.619Z,8.60
2022-09-27T17:41:42.695Z,8.57
2022-09-27T17:44:44.285Z,8.56
2022-09-27T17:48:04.503Z,8.53
2022-09-27T17:51:06.067Z,8.50
2022-09-27T17:54:09.788Z,8.45
2022-09-27T17:57:11.913Z,8.45
2022-09-27T18:00:13.712Z,8.44
2022-09-27T18:03:15.396Z,8.40
2022-09-27T18:06:17.029Z,8.39
2022-09-27T18:09:19.688Z,8.38
2022-09-27T18:12:21.745Z,8.39
2022-09-27T18:15:23.390Z,8.36
2022-09-27T18:18:26.952Z,8.32
2022-09-27T18:21:30.695Z,8.33
2022-09-27T18:24:32.292Z,8.34
2022-09-27T18:27:34.655Z,8.31
2022-09-27T18:30:36.269Z,8.33
2022-09-27T18:33:38.203Z,8.32
2022-09-27T18:36:42.334Z,8.34
2022-09-27T18:39:43.974Z,8.35
2022-09-27T18:42:45.643Z,8.35
2022-09-27T18:45:47.207Z,8.39
2022-09-27T18:48:49.071Z,8.36
2022-09-27T18:51:51.958Z,8.39
2022-09-27T18:54:53.578Z,8.40
2022-09-27T18:57:55.196Z,8.41
2022-09-27T19:01:02.632Z,8.40
2022-09-27T19:04:04.277Z,8.40
2022-09-27T19:07:05.944Z,8.44
2022-09-27T19:10:07.878Z,8.46
2022-09-27T19:13:09.511Z,8.46
2022-09-27T19:16:12.119Z,8.50
2022-09-27T19:19:17.877Z,8.53
2022-09-27T19:22:20.985Z,8.55
2022-09-27T19:25:22.597Z,8.54
2022-09-27T19:28:24.291Z,8.56
2022-09-27T19:31:26.972Z,8.56
2022-09-27T19:34:28.642Z,8.57
2022-09-27T19:37:30.297Z,8.59
2022-09-27T19:40:32.120Z,8.59
2022-09-27T19:43:34.381Z,8.59
2022-09-27T19:46:36.056Z,8.59
2022-09-27T19:49:37.751Z,8.63
2022-09-27T19:52:39.487Z,8.62
2022-09-27T19:55:41.024Z,8.64
2022-09-27T19:58:44.016Z,8.63
2022-09-27T20:01:45.661Z,8.65
2022-09-27T20:04:47.365Z,8.65
2022-09-27T20:07:50.339Z,8.67
2022-09-27T20:11:05.854Z,8.65
2022-09-27T20:14:08.230Z,8.67
2022-09-27T20:17:09.885Z,8.69
2022-09-27T20:20:11.448Z,8.71
2022-09-27T20:23:13.306Z,8.74
2022-09-27T20:26:16.464Z,8.75
2022-09-27T20:29:18.163Z,8.70
2022-09-27T20:32:28.323Z,8.59
2022-09-27T20:35:30.223Z,8.48
2022-09-27T20:38:31.800Z,8.41
2022-09-27T20:41:38.491Z,8.37
2022-09-27T20:44:40.257Z,8.34
2022-09-27T20:47:42.030Z,8.28
2022-09-27T20:50:44.441Z,8.27
2022-09-27T20:53:46.031Z,8.25
2022-09-27T20:56:48.759Z,8.23
2022-09-27T20:59:50.312Z,8.22
2022-09-27T21:02:51.906Z,8.22
2022-09-27T21:05:58.734Z,8.22
2022-09-27T21:09:03.242Z,8.20
2022-09-27T21:12:04.878Z,8.18
2022-09-27T21:15:06.991Z,8.16
2022-09-27T21:18:09.152Z,8.15
2022-09-27T21:21:13.102Z,8.16
2022-09-27T21:24:14.813Z,8.16
2022-09-27T21:27:16.431Z,8.17
2022-09-27T21:30:18.007Z,8.15
2022-09-27T21:33:19.570Z,8.12
2022-09-27T21:36:28.636Z,8.14
2022-09-27T21:39:30.591Z,8.14
2022-09-27T21:42:32.224Z,8.18
2022-09-27T21:45:33.894Z,8.15
2022-09-27T21:48:37.383Z,8.16
2022-09-27T21:51:41.835Z,8.16
2022-09-27T21:54:43.471Z,8.17
2022-09-27T21:57:45.083Z,8.20
2022-09-27T22:00:46.690Z,8.19
2022-09-27T22:03:50.261Z,8.18
2022-09-27T22:06:53.043Z,8.18
2022-09-27T22:09:54.660Z,8.17
2022-09-27T22:12:56.457Z,8.18
2022-09-27T22:16:02.992Z,8.18
2022-09-27T22:19:04.630Z,8.16
2022-09-27T22:22:06.237Z,8.13
2022-09-27T22:25:08.149Z,8.13
2022-09-27T22:28:09.784Z,8.12
2022-09-27T22:31:14.990Z,8.12
2022-09-27T22:34:28.618Z,8.14
2022-09-27T22:37:30.429Z,8.15
2022-09-27T22:40:32.123Z,8.13
2022-09-27T22:43:33.862Z,8.16
2022-09-27T22:46:35.789Z,8.16
2022-09-27T22:49:37.485Z,8.16
2022-09-27T22:52:39.090Z,8.18
2022-09-27T22:55:41.391Z,8.17
2022-09-27T22:58:44.317Z,8.18
2022-09-27T23:01:45.904Z,8.17
2022-09-27T23:04:49.022Z,8.17
2022-09-27T23:07:52.423Z,8.20
2022-09-27T23:11:02.647Z,8.20
2022-09-27T23:14:05.519Z,8.18
2022-09-27T23:17:07.098Z,8.20
2022-09-27T23:20:09.090Z,8.22
2022-09-27T23:23:13.800Z,8.23
2022-09-27T23:26:16.552Z,8.27
2022-09-27T23:29:19.721Z,8.29
2022-09-27T23:32:21.352Z,8.31
2022-09-27T23:35:23.628Z,8.32
2022-09-27T23:38:25.193Z,8.34
2022-09-27T23:41:27.209Z,8.36
2022-09-27T23:44:29.272Z,8.39
2022-09-27T23:47:30.904Z,8.39
2022-09-27T23:50:32.548Z,8.41
2022-09-27T23:53:34.705Z,8.41
2022-09-27T23:56:36.486Z,8.42
2022-09-27T23:59:38.508Z,8.44
